Time;durP1;ratioP1;P1;durP2;ratioP2;P2;SDS_P1;SDS_P2;PMS_P1;PMS_P2;Temp;Humidity;BMP_temperature;BMP_pressure;BME280_temperature;BME280_humidity;BME280_pressure;Samples;Min_cycle;Max_cycle;Signal;HPM_P1;HPM_P2
2022/05/13 03:19:50;;;;;;;;;;;;;;;10.49;63.23;97600.63;5031453;28;19975;-59
2022/05/13 03:22:16;;;;;;;;;;;;;;;10.52;64.08;97597.44;5030794;28;19996;-60
2022/05/13 03:24:42;;;;;;;;;;;;;;;10.59;63.78;97613.78;5031352;28;19925;-61
2022/05/13 03:27:07;;;;;;;;;;;;;;;10.71;63.68;97591.41;5031526;28;19974;-60
2022/05/13 03:29:35;;;;;;;;;;;;;;;10.66;63.12;97594.91;5031992;28;20390;-60
2022/05/13 03:32:01;;;;;;;;;;;;;;;10.69;63.12;97597.00;5032855;28;20357;-60
2022/05/13 03:34:27;;;;;;;;;;;;;;;10.83;63.35;97605.84;5030439;28;19951;-61
2022/05/13 03:36:54;;;;;;;;;;;;;;;10.89;62.93;97622.50;5039998;28;20271;-60
2022/05/13 03:39:19;;;;;;;;;;;;;;;11.27;61.19;97606.66;5051687;28;20392;-62
2022/05/13 03:41:45;;;;;;;;;;;;;;;11.41;61.21;97612.03;5051690;28;19929;-61
2022/05/13 03:44:11;;;;;;;;;;;;;;;11.13;61.41;97603.91;5051514;28;19935;-61
2022/05/13 03:46:39;;;;;;;;;;;;;;;11.29;61.74;97609.81;5052518;28;19929;-61
2022/05/13 03:49:05;;;;;;;;;;;;;;;11.39;61.47;97614.22;5054800;28;19925;-65
2022/05/13 03:51:32;;;;;;;;;;;;;;;11.40;61.61;97616.56;5055461;28;20051;-61
2022/05/13 03:53:58;;;;;;;;;;;;;;;11.45;61.18;97621.81;5021124;28;19928;-60
2022/05/13 03:56:24;;;;;;;;;;;;;;;11.44;61.35;97614.94;5054491;28;19929;-61
2022/05/13 03:58:50;;;;;;;;;;;;;;;11.46;61.17;97625.25;5052357;28;19955;-61
2022/05/13 04:01:16;;;;;;;;;;;;;;;11.28;60.91;97624.94;5055260;28;19925;-63
2022/05/13 04:03:41;;;;;;;;;;;;;;;11.46;60.09;97628.69;5054983;28;19925;-61
2022/05/13 04:08:57;;;;;;;;;;;;;;;11.74;59.82;97634.94;5051363;28;19936;-61
2022/05/13 04:11:23;;;;;;;;;;;;;;;12.10;59.05;97633.66;5035125;28;19929;-62
2022/05/13 04:16:32;;;;;;;;;;;;;;;12.74;55.90;97637.34;5034902;28;19936;-62
2022/05/13 04:18:58;;;;;;;;;;;;;;;12.78;56.11;97635.66;5048320;28;19925;-61
2022/05/13 04:21:25;;;;;;;;;;;;;;;13.01;55.67;97636.56;5054894;28;20283;-61
2022/05/13 04:23:51;;;;;;;;;;;;;;;13.26;54.91;97642.50;5054612;28;19986;-61
2022/05/13 04:26:17;;;;;;;;;;;;;;;13.67;54.01;97641.63;5054661;28;19925;-61
2022/05/13 04:28:44;;;;;;;;;;;;;;;14.20;52.27;97630.28;5045554;28;19970;-62
2022/05/13 04:31:10;;;;;;;;;;;;;;;14.56;50.79;97642.75;5034648;28;19932;-61
2022/05/13 04:33:36;;;;;;;;;;;;;;;14.31;50.92;97637.75;5034670;28;19925;-62
2022/05/13 04:36:02;;;;;;;;;;;;;;;13.95;52.19;97656.47;5034478;28;19955;-64
2022/05/13 04:38:27;;;;;;;;;;;;;;;13.66;52.59;97648.06;5035269;28;20008;-64
2022/05/13 04:40:53;;;;;;;;;;;;;;;13.56;52.69;97647.19;5034581;28;20027;-61
2022/05/13 04:43:18;;;;;;;;;;;;;;;13.79;52.39;97637.34;5034638;28;19929;-62
2022/05/13 04:45:44;;;;;;;;;;;;;;;13.96;51.27;97627.94;5034434;28;19925;-63
2022/05/13 04:48:19;;;;;;;;;;;;;;;13.99;51.11;97646.75;5041509;28;19960;-63
2022/05/13 04:50:49;;;;;;;;;;;;;;;13.84;51.69;97650.56;5053137;28;20374;-62
2022/05/13 04:53:15;;;;;;;;;;;;;;;13.73;52.32;97651.88;5053325;28;19932;-65
2022/05/13 04:55:41;;;;;;;;;;;;;;;13.71;51.83;97646.06;5054553;28;20030;-64
2022/05/13 04:58:06;;;;;;;;;;;;;;;13.60;52.47;97650.81;5034248;28;20402;-63
2022/05/13 05:00:32;;;;;;;;;;;;;;;13.43;52.77;97650.66;5054351;28;19931;-62
2022/05/13 05:02:58;;;;;;;;;;;;;;;13.35;53.35;97652.16;5054024;28;20378;-60
2022/05/13 05:05:23;;;;;;;;;;;;;;;13.46;53.02;97650.06;5053378;28;20345;-61
2022/05/13 05:07:49;;;;;;;;;;;;;;;13.54;52.59;97653.91;5053289;28;19935;-63
2022/05/13 05:10:14;;;;;;;;;;;;;;;13.70;52.64;97647.16;5040921;28;20035;-59
2022/05/13 05:12:40;;;;;;;;;;;;;;;13.76;52.14;97653.16;5052513;28;19982;-63
2022/05/13 05:15:06;;;;;;;;;;;;;;;13.68;52.83;97654.66;5046460;28;19925;-61
2022/05/13 05:17:31;;;;;;;;;;;;;;;13.71;51.74;97661.28;5032465;28;19933;-61
2022/05/13 05:19:56;;;;;;;;;;;;;;;13.75;52.24;97660.34;5032404;28;19932;-61
2022/05/13 05:22:22;;;;;;;;;;;;;;;13.58;52.76;97668.19;5032569;28;19968;-59
2022/05/13 05:24:48;;;;;;;;;;;;;;;13.55;52.48;97656.25;5034364;28;19971;-61
2022/05/13 05:27:13;;;;;;;;;;;;;;;13.52;52.36;97656.06;5033904;28;19964;-61
2022/05/13 05:29:39;;;;;;;;;;;;;;;13.53;52.22;97657.63;5042529;28;19932;-61
2022/05/13 05:32:05;;;;;;;;;;;;;;;13.38;52.46;97656.06;5053538;28;20405;-61
2022/05/13 05:34:30;;;;;;;;;;;;;;;13.53;52.71;97650.47;5053522;28;19925;-64
2022/05/13 05:36:56;;;;;;;;;;;;;;;13.71;52.61;97645.28;5052055;28;19929;-64
2022/05/13 05:39:22;;;;;;;;;;;;;;;13.78;51.90;97656.31;5052018;28;20018;-60
2022/05/13 05:41:47;;;;;;;;;;;;;;;13.66;51.75;97661.38;5053320;28;19925;-62
2022/05/13 05:44:13;;;;;;;;;;;;;;;13.56;52.08;97660.50;5053425;28;19924;-62
2022/05/13 05:46:38;;;;;;;;;;;;;;;13.74;51.95;97658.78;5053279;28;20020;-61
2022/05/13 05:49:04;;;;;;;;;;;;;;;13.95;51.41;97667.13;5047627;28;19940;-63
2022/05/13 05:51:30;;;;;;;;;;;;;;;14.07;52.07;97658.59;5050963;28;20293;-60
2022/05/13 05:59:24;;;;;;;;;;;;;;;14.34;50.95;97672.88;5032842;28;19929;-62
2022/05/13 06:01:50;;;;;;;;;;;;;;;14.49;50.16;97677.84;5032343;28;19929;-62
2022/05/13 06:04:15;;;;;;;;;;;;;;;14.53;49.97;97676.97;5013256;28;19973;-62
2022/05/13 06:06:41;;;;;;;;;;;;;;;14.43;49.00;97663.06;5032179;28;19933;-61
2022/05/13 06:09:08;;;;;;;;;;;;;;;14.25;49.89;97670.16;5032368;28;20006;-60
2022/05/13 06:11:33;;;;;;;;;;;;;;;14.21;49.44;97677.19;5032726;28;20390;-61
2022/05/13 06:13:59;;;;;;;;;;;;;;;14.18;50.56;97673.25;5031434;28;19932;-61
2022/05/13 06:16:28;;;;;;;;;;;;;;;13.92;50.53;97688.25;5037506;28;20461;-61
2022/05/13 06:18:54;;;;;;;;;;;;;;;13.97;50.66;97682.78;5052414;28;19932;-62
2022/05/13 06:21:20;;;;;;;;;;;;;;;13.87;50.87;97678.47;5052459;28;19932;-62
2022/05/13 06:23:45;;;;;;;;;;;;;;;13.76;51.18;97690.44;5051262;28;19925;-62
2022/05/13 06:26:11;;;;;;;;;;;;;;;13.74;50.94;97688.09;5050952;28;19955;-61
2022/05/13 06:28:36;;;;;;;;;;;;;;;13.63;51.39;97684.06;5044629;28;19925;-60
2022/05/13 06:31:02;;;;;;;;;;;;;;;13.77;51.68;97702.69;5029956;28;19932;-62
2022/05/13 06:33:28;;;;;;;;;;;;;;;13.86;51.82;97692.88;5030898;28;20349;-61
2022/05/13 06:35:53;;;;;;;;;;;;;;;13.79;51.69;97689.81;5032032;28;19932;-64
2022/05/13 06:38:22;;;;;;;;;;;;;;;13.85;51.73;97691.28;5032947;28;20024;-60
2022/05/13 06:40:49;;;;;;;;;;;;;;;13.95;52.03;97701.75;5043145;28;19925;-61
2022/05/13 06:43:14;;;;;;;;;;;;;;;14.16;51.31;97702.06;5050062;28;20417;-60
2022/05/13 06:45:41;;;;;;;;;;;;;;;14.16;51.01;97699.41;5071123;28;19925;-62
2022/05/13 06:48:07;;;;;;;;;;;;;;;14.15;51.08;97702.34;5071393;28;19928;-62
2022/05/13 06:50:32;;;;;;;;;;;;;;;14.20;50.54;97697.69;5070679;28;19939;-60
2022/05/13 06:52:58;;;;;;;;;;;;;;;14.05;50.38;97706.03;5043600;28;20561;-61
2022/05/13 06:55:24;;;;;;;;;;;;;;;14.09;50.62;97702.50;5030139;28;20392;-62
2022/05/13 06:57:49;;;;;;;;;;;;;;;14.24;49.76;97692.56;5031054;28;19929;-61
2022/05/13 07:00:15;;;;;;;;;;;;;;;14.56;49.94;97698.75;5031407;28;20317;-61
2022/05/13 07:02:40;;;;;;;;;;;;;;;14.48;49.39;97695.72;5032177;28;19929;-62
2022/05/13 07:05:07;;;;;;;;;;;;;;;14.66;49.06;97707.31;5035909;28;20397;-62
2022/05/13 07:07:32;;;;;;;;;;;;;;;14.70;48.47;97710.91;5049154;28;19936;-62
2022/05/13 07:09:58;;;;;;;;;;;;;;;14.66;48.69;97717.97;5049198;28;19925;-61
2022/05/13 07:12:23;;;;;;;;;;;;;;;14.66;49.03;97701.97;5050357;28;20011;-61
2022/05/13 07:14:49;;;;;;;;;;;;;;;14.46;48.71;97710.44;5031126;28;20389;-62
2022/05/13 07:17:15;;;;;;;;;;;;;;;14.62;48.32;97710.88;5048984;28;19982;-61
2022/05/13 07:19:41;;;;;;;;;;;;;;;14.89;46.88;97707.28;5050981;28;19979;-61
2022/05/13 07:22:06;;;;;;;;;;;;;;;15.04;47.42;97714.88;5051319;28;20367;-62
2022/05/13 07:24:32;;;;;;;;;;;;;;;15.17;47.12;97718.53;5049782;28;19970;-62
2022/05/13 07:26:58;;;;;;;;;;;;;;;15.18;47.00;97720.13;5031919;28;20373;-62
2022/05/13 07:29:23;;;;;;;;;;;;;;;15.15;46.94;97728.75;5013764;28;20313;-60
2022/05/13 07:31:49;;;;;;;;;;;;;;;15.17;46.99;97724.66;5030263;28;19929;-61
2022/05/13 07:34:14;;;;;;;;;;;;;;;15.16;46.43;97730.31;5030619;28;19957;-63
2022/05/13 07:36:40;;;;;;;;;;;;;;;14.96;45.95;97724.41;5031446;28;20408;-61
2022/05/13 07:41:52;;;;;;;;;;;;;;;14.86;46.20;97732.69;5031791;28;19936;-62
2022/05/13 07:44:18;;;;;;;;;;;;;;;14.82;46.68;97726.38;5029278;28;19925;-62
2022/05/13 07:46:45;;;;;;;;;;;;;;;14.84;47.05;97731.41;5011163;28;20166;-61
2022/05/13 07:49:10;;;;;;;;;;;;;;;14.81;47.30;97719.47;5030184;28;19983;-60
2022/05/13 07:51:36;;;;;;;;;;;;;;;14.79;46.89;97716.31;4995870;28;19937;-60
2022/05/13 07:54:01;;;;;;;;;;;;;;;15.03;46.92;97720.50;5029163;28;19929;-62
2022/05/13 07:56:27;;;;;;;;;;;;;;;15.24;46.39;97718.13;5030134;28;19929;-61
2022/05/13 07:58:53;;;;;;;;;;;;;;;15.34;45.82;97715.16;5028422;28;19925;-60
2022/05/13 08:01:18;;;;;;;;;;;;;;;15.20;46.10;97724.03;5028053;28;19931;-62
2022/05/13 08:03:46;;;;;;;;;;;;;;;15.16;45.68;97738.31;5029752;28;19925;-61
2022/05/13 08:06:14;;;;;;;;;;;;;;;14.96;45.14;97719.06;5046488;28;20469;-62
2022/05/13 08:08:40;;;;;;;;;;;;;;;14.86;44.96;97723.91;5049277;28;19928;-60
2022/05/13 08:11:07;;;;;;;;;;;;;;;14.93;44.29;97732.25;5047471;28;19925;-61
2022/05/13 08:13:34;;;;;;;;;;;;;;;14.72;44.35;97731.97;5046869;28;19932;-62
2022/05/13 08:16:01;;;;;;;;;;;;;;;14.80;45.16;97725.91;5029976;28;20024;-61
2022/05/13 08:18:26;;;;;;;;;;;;;;;14.71;45.45;97719.75;5048869;28;19948;-61
2022/05/13 08:20:52;;;;;;;;;;;;;;;14.69;45.13;97735.25;5050185;28;19979;-61
2022/05/13 08:23:18;;;;;;;;;;;;;;;14.68;45.74;97720.34;5049901;28;19932;-60
2022/05/13 08:25:44;;;;;;;;;;;;;;;14.89;45.07;97720.63;5039438;28;19931;-60
2022/05/13 08:28:10;;;;;;;;;;;;;;;15.29;45.03;97734.75;5030847;28;20335;-60
2022/05/13 08:30:36;;;;;;;;;;;;;;;15.13;45.03;97739.72;5029963;28;19925;-61
2022/05/13 08:33:02;;;;;;;;;;;;;;;15.09;44.74;97729.97;5032454;28;20024;-59
2022/05/13 08:35:28;;;;;;;;;;;;;;;15.15;44.40;97732.22;5033824;28;19978;-61
2022/05/13 08:37:54;;;;;;;;;;;;;;;15.13;44.62;97734.38;5035004;28;20027;-61
2022/05/13 08:40:52;;;;;;;;;;;;;;;15.22;45.27;97721.06;5034016;28;20441;-61
2022/05/13 08:43:25;;;;;;;;;;;;;;;15.22;44.36;97735.22;5025559;28;19929;-62
2022/05/13 08:45:52;;;;;;;;;;;;;;;15.29;44.35;97723.28;5033718;28;19925;-62
2022/05/13 08:48:25;;;;;;;;;;;;;;;15.33;43.81;97726.94;5032104;28;20455;-61
2022/05/13 08:51:15;;;;;;;;;;;;;;;15.37;43.68;97727.88;4999068;28;20456;-63
2022/05/13 08:53:59;;;;;;;;;;;;;;;15.53;42.60;97725.56;5013205;28;20390;-61
2022/05/13 08:56:26;;;;;;;;;;;;;;;15.56;41.94;97732.97;5032006;28;19929;-60
2022/05/13 08:58:57;;;;;;;;;;;;;;;15.82;41.95;97728.50;5032977;28;19971;-60
2022/05/13 09:01:27;;;;;;;;;;;;;;;15.85;41.79;97730.56;5032381;28;19940;-60
2022/05/13 09:03:54;;;;;;;;;;;;;;;15.66;42.36;97738.03;5032846;28;19929;-61
2022/05/13 09:06:21;;;;;;;;;;;;;;;15.60;42.88;97728.59;5032466;28;19933;-61
2022/05/13 09:08:46;;;;;;;;;;;;;;;15.71;42.90;97729.91;5032529;28;19932;-60
2022/05/13 09:11:14;;;;;;;;;;;;;;;15.79;42.66;97726.44;5031826;28;20309;-62
2022/05/13 09:14:02;;;;;;;;;;;;;;;15.85;42.04;97725.22;5031871;28;19929;-62
2022/05/13 09:16:51;;;;;;;;;;;;;;;15.74;41.93;97731.19;5031980;28;19929;-61
2022/05/13 09:19:25;;;;;;;;;;;;;;;15.79;41.90;97723.00;5023987;28;20493;-60
2022/05/13 09:21:51;;;;;;;;;;;;;;;15.75;41.79;97720.16;5031984;28;19936;-62
2022/05/13 09:24:16;;;;;;;;;;;;;;;15.51;42.27;97717.88;5033003;28;19925;-59
2022/05/13 09:26:43;;;;;;;;;;;;;;;15.56;42.76;97725.75;5032671;28;19969;-61
2022/05/13 09:29:12;;;;;;;;;;;;;;;15.61;42.87;97717.56;5032382;28;19925;-63
2022/05/13 09:31:39;;;;;;;;;;;;;;;15.65;42.26;97734.56;5015013;28;19929;-60
2022/05/13 09:34:24;;;;;;;;;;;;;;;15.49;41.80;97724.63;5032858;28;19925;-60
2022/05/13 09:36:49;;;;;;;;;;;;;;;15.33;41.90;97721.59;5031685;28;19929;-61
2022/05/13 09:39:17;;;;;;;;;;;;;;;15.36;42.25;97731.66;5032117;28;20324;-60
2022/05/13 09:41:42;;;;;;;;;;;;;;;15.29;42.32;97720.63;5014229;28;20258;-61
2022/05/13 09:44:12;;;;;;;;;;;;;;;15.35;41.78;97730.88;5030230;28;19932;-60
2022/05/13 09:46:37;;;;;;;;;;;;;;;15.65;41.44;97726.56;5031248;28;20449;-61
2022/05/13 09:49:11;;;;;;;;;;;;;;;15.92;40.89;97743.47;5031790;28;19925;-60
2022/05/13 09:51:49;;;;;;;;;;;;;;;16.11;41.09;97738.59;5032173;28;19925;-61
2022/05/13 09:54:16;;;;;;;;;;;;;;;16.19;40.68;97733.59;5014467;28;20401;-62
2022/05/13 09:56:43;;;;;;;;;;;;;;;16.27;41.14;97746.16;5032394;28;19996;-61
2022/05/13 09:59:18;;;;;;;;;;;;;;;16.40;40.68;97739.09;5031926;28;19928;-62
2022/05/13 10:01:44;;;;;;;;;;;;;;;16.51;40.27;97741.13;5032121;28;20064;-60
2022/05/13 10:04:13;;;;;;;;;;;;;;;16.43;41.17;97754.50;5030793;28;20452;-63
2022/05/13 10:06:39;;;;;;;;;;;;;;;16.31;43.10;97749.78;5031051;28;19933;-61
2022/05/13 10:14:56;;;;;;;;;;;;;;;16.56;41.65;97754.34;5031032;28;19925;-61
2022/05/13 10:17:22;;;;;;;;;;;;;;;16.79;40.87;97748.81;5030402;28;20416;-61
2022/05/13 10:19:50;;;;;;;;;;;;;;;16.90;40.22;97727.84;5029665;28;20374;-61
2022/05/13 10:22:18;;;;;;;;;;;;;;;16.89;40.10;97745.81;5013654;28;19929;-62
2022/05/13 10:24:44;;;;;;;;;;;;;;;16.94;40.16;97721.56;5030998;28;20332;-62
2022/05/13 10:27:12;;;;;;;;;;;;;;;17.09;39.40;97736.31;5030934;28;19929;-61
2022/05/13 10:29:43;;;;;;;;;;;;;;;17.37;38.54;97735.88;5030486;28;19968;-61
2022/05/13 10:32:29;;;;;;;;;;;;;;;17.21;38.04;97735.66;5029312;28;19929;-61
2022/05/13 10:34:55;;;;;;;;;;;;;;;16.90;38.77;97730.53;4998897;28;19925;-61
2022/05/13 10:37:31;;;;;;;;;;;;;;;16.68;39.60;97728.84;5030878;28;20285;-60
2022/05/13 10:40:14;;;;;;;;;;;;;;;16.74;39.45;97731.03;5046665;28;19924;-64
2022/05/13 10:42:41;;;;;;;;;;;;;;;16.54;38.98;97724.44;5029269;28;19975;-62
2022/05/13 10:45:51;;;;;;;;;;;;;;;16.52;38.77;97728.53;5014948;28;20362;-62
2022/05/13 10:49:14;;;;;;;;;;;;;;;16.27;39.38;97727.44;5045480;28;20388;-61
2022/05/13 10:54:55;;;;;;;;;;;;;;;16.36;39.50;97733.59;5163088;23;19930;-62
2022/05/13 10:57:24;;;;;;;;;;;;;;;16.48;39.39;97723.03;4962693;28;20395;-63
2022/05/13 10:59:53;;;;;;;;;;;;;;;16.55;39.21;97727.88;4947589;29;19934;-62
2022/05/13 11:02:38;;;;;;;;;;;;;;;16.37;41.33;97716.44;4953092;29;19977;-61
2022/05/13 11:05:09;;;;;;;;;;;;;;;16.42;41.68;97737.66;4951909;28;19937;-63
2022/05/13 11:07:37;;;;;;;;;;;;;;;16.45;41.80;97747.72;4952063;28;19926;-61
2022/05/13 11:10:08;;;;;;;;;;;;;;;16.44;41.75;97732.81;4932184;29;20299;-61
2022/05/13 11:12:33;;;;;;;;;;;;;;;16.47;41.42;97734.03;4939383;29;20030;-61
2022/05/13 11:15:22;;;;;;;;;;;;;;;16.51;41.58;97743.78;4951715;29;20025;-60
2022/05/13 11:18:00;;;;;;;;;;;;;;;16.90;40.98;97733.22;4932641;29;19930;-60
2022/05/13 11:20:41;;;;;;;;;;;;;;;16.97;39.81;97739.66;4950024;29;19923;-63
2022/05/13 11:23:29;;;;;;;;;;;;;;;16.93;39.79;97733.34;4934610;29;20392;-62
2022/05/13 11:26:01;;;;;;;;;;;;;;;16.80;39.68;97723.66;4953019;28;19956;-60
2022/05/13 11:28:33;;;;;;;;;;;;;;;16.64;39.59;97731.34;4950947;28;19930;-63
2022/05/13 11:31:04;;;;;;;;;;;;;;;16.46;39.51;97721.78;4935589;28;20216;-63
2022/05/13 11:33:41;;;;;;;;;;;;;;;16.46;40.14;97722.56;4934327;29;19986;-61
2022/05/13 11:36:11;;;;;;;;;;;;;;;16.29;39.33;97711.88;4932622;29;19926;-62
2022/05/13 11:38:41;;;;;;;;;;;;;;;16.25;39.36;97717.06;4935180;29;19931;-62
2022/05/13 11:41:10;;;;;;;;;;;;;;;16.46;40.55;97727.91;4925654;29;19926;-63
2022/05/13 11:43:39;;;;;;;;;;;;;;;16.55;39.52;97726.00;4951995;29;19931;-61
2022/05/13 11:46:04;;;;;;;;;;;;;;;16.79;38.25;97730.09;4953488;28;19926;-63
2022/05/13 11:48:31;;;;;;;;;;;;;;;17.01;37.23;97705.78;4953428;29;19930;-61
2022/05/13 11:51:08;;;;;;;;;;;;;;;17.05;36.18;97718.53;4949672;29;19960;-62
2022/05/13 11:53:44;;;;;;;;;;;;;;;17.07;35.97;97717.09;4948848;28;19977;-62
2022/05/13 11:56:14;;;;;;;;;;;;;;;17.03;36.76;97716.19;4940491;29;19989;-61
2022/05/13 11:58:50;;;;;;;;;;;;;;;17.01;36.42;97705.78;4932987;29;19930;-63
2022/05/13 12:01:35;;;;;;;;;;;;;;;16.93;36.58;97716.50;4903019;29;20028;-61
2022/05/13 12:04:14;;;;;;;;;;;;;;;16.79;36.88;97704.13;4951810;29;19937;-62
2022/05/13 12:06:52;;;;;;;;;;;;;;;16.77;37.43;97689.50;4938137;29;20380;-62
2022/05/13 12:09:32;;;;;;;;;;;;;;;16.66;37.17;97704.28;4937722;29;19978;-61
2022/05/13 12:12:17;;;;;;;;;;;;;;;16.73;37.21;97701.91;4945755;29;19927;-61
2022/05/13 12:14:45;;;;;;;;;;;;;;;16.77;37.95;97692.16;4939295;29;20452;-61
2022/05/13 12:17:14;;;;;;;;;;;;;;;16.83;37.64;97687.44;4956059;29;19982;-60
2022/05/13 12:19:43;;;;;;;;;;;;;;;16.88;37.56;97697.94;4942394;29;19953;-61
2022/05/13 12:22:31;;;;;;;;;;;;;;;16.75;38.09;97710.41;4935413;29;19926;-60
2022/05/13 12:24:58;;;;;;;;;;;;;;;16.55;38.89;97733.25;4934554;29;19937;-62
2022/05/13 12:27:30;;;;;;;;;;;;;;;16.71;41.31;97739.69;4945952;29;20066;-63
2022/05/13 12:29:56;;;;;;;;;;;;;;;16.53;42.72;97738.91;4954507;29;19973;-62
2022/05/13 12:32:24;;;;;;;;;;;;;;;16.35;42.14;97751.53;4945754;29;20319;-62
2022/05/13 12:37:46;;;;;;;;;;;;;;;16.07;42.29;97734.97;4949893;29;19950;-62
2022/05/13 12:40:18;;;;;;;;;;;;;;;16.18;42.75;97743.50;4937300;29;19931;-61
2022/05/13 12:42:44;;;;;;;;;;;;;;;16.23;42.46;97737.19;4936464;29;20029;-62
2022/05/13 12:45:21;;;;;;;;;;;;;;;16.13;40.30;97717.69;4919808;29;19953;-63
2022/05/13 12:48:08;;;;;;;;;;;;;;;16.12;38.41;97724.16;4936443;29;20289;-64
2022/05/13 12:50:43;;;;;;;;;;;;;;;16.10;38.40;97723.66;4937170;29;19953;-63
2022/05/13 12:53:27;;;;;;;;;;;;;;;16.08;37.19;97715.16;4936661;29;20337;-64
2022/05/13 12:55:56;;;;;;;;;;;;;;;16.18;36.07;97710.59;4936125;29;20430;-66
2022/05/13 12:58:22;;;;;;;;;;;;;;;16.16;35.75;97708.25;4935199;29;19966;-62
2022/05/13 13:00:48;;;;;;;;;;;;;;;16.14;35.94;97705.09;4935803;29;19966;-62
2022/05/13 13:03:14;;;;;;;;;;;;;;;16.26;36.48;97696.44;4936372;29;20034;-61
2022/05/13 13:06:07;;;;;;;;;;;;;;;16.39;36.37;97695.50;4937343;28;20459;-62
2022/05/13 13:08:52;;;;;;;;;;;;;;;16.53;36.13;97671.25;4898253;29;19934;-62
2022/05/13 13:11:27;;;;;;;;;;;;;;;16.51;35.88;97698.31;4953058;29;19926;-63
2022/05/13 13:14:10;;;;;;;;;;;;;;;16.49;35.94;97694.38;4955074;28;19937;-62
2022/05/13 13:16:41;;;;;;;;;;;;;;;16.47;36.22;97697.41;4951737;29;19958;-61
2022/05/13 13:19:07;;;;;;;;;;;;;;;16.56;36.24;97689.38;4955063;28;19926;-61
2022/05/13 13:21:32;;;;;;;;;;;;;;;16.61;36.23;97712.47;4954578;28;19930;-62
2022/05/13 13:24:00;;;;;;;;;;;;;;;16.42;38.52;97728.88;4954480;29;20400;-61
2022/05/13 13:26:25;;;;;;;;;;;;;;;16.13;40.98;97751.66;4955060;29;20025;-62
2022/05/13 13:28:51;;;;;;;;;;;;;;;15.77;41.81;97751.94;4952494;28;19970;-62
2022/05/13 13:31:22;;;;;;;;;;;;;;;15.68;42.12;97751.91;4935797;29;20029;-63
2022/05/13 13:33:49;;;;;;;;;;;;;;;15.69;42.84;97755.34;4933150;29;19934;-62
2022/05/13 13:36:16;;;;;;;;;;;;;;;15.54;43.80;97751.19;4935038;29;20153;-62
2022/05/13 13:38:46;;;;;;;;;;;;;;;15.42;44.78;97754.44;4934294;29;20356;-61
2022/05/13 13:41:25;;;;;;;;;;;;;;;15.36;44.82;97747.69;4933508;29;19927;-63
2022/05/13 13:43:55;;;;;;;;;;;;;;;15.30;45.13;97759.59;4953022;29;19930;-61
2022/05/13 13:46:22;;;;;;;;;;;;;;;15.35;44.43;97764.78;4947599;28;20029;-61
2022/05/13 13:48:52;;;;;;;;;;;;;;;15.47;44.53;97773.00;4917107;29;19978;-62
2022/05/13 13:51:25;;;;;;;;;;;;;;;15.47;43.52;97780.22;4934586;29;19927;-61
2022/05/13 13:53:56;;;;;;;;;;;;;;;15.41;43.81;97779.56;4934722;29;20021;-62
2022/05/13 13:56:21;;;;;;;;;;;;;;;15.47;43.66;97790.91;4935865;29;19927;-62
2022/05/13 13:58:56;;;;;;;;;;;;;;;15.47;43.16;97802.38;4929923;29;19986;-62
2022/05/13 14:01:23;;;;;;;;;;;;;;;15.49;43.74;97802.06;4952160;29;19926;-63
2022/05/13 14:03:49;;;;;;;;;;;;;;;15.30;43.72;97786.28;4953827;28;19931;-61
2022/05/13 14:06:21;;;;;;;;;;;;;;;15.19;43.24;97799.88;4952373;29;20470;-62
2022/05/13 14:08:49;;;;;;;;;;;;;;;15.11;44.23;97799.84;4951196;29;19937;-62
2022/05/13 14:11:16;;;;;;;;;;;;;;;14.95;47.20;97828.78;4949532;29;19930;-62
2022/05/13 14:13:42;;;;;;;;;;;;;;;14.74;47.98;97815.16;4933718;29;20361;-62
2022/05/13 14:16:12;;;;;;;;;;;;;;;14.67;48.57;97817.44;4934359;29;19965;-62
2022/05/13 14:18:37;;;;;;;;;;;;;;;14.63;48.55;97819.91;4934916;29;19978;-61
2022/05/13 14:21:08;;;;;;;;;;;;;;;14.56;50.28;97822.22;4934061;29;19927;-63
2022/05/13 14:23:34;;;;;;;;;;;;;;;14.58;49.46;97817.34;4934764;29;19981;-61
2022/05/13 14:26:01;;;;;;;;;;;;;;;14.65;48.51;97815.06;4934358;29;19926;-64
2022/05/13 14:28:28;;;;;;;;;;;;;;;14.64;48.60;97810.81;4934370;29;20369;-62
2022/05/13 14:30:58;;;;;;;;;;;;;;;14.58;47.26;97812.03;4931968;29;19926;-62
2022/05/13 14:33:30;;;;;;;;;;;;;;;14.59;48.07;97826.94;4934116;29;20414;-63
2022/05/13 14:36:02;;;;;;;;;;;;;;;14.57;50.01;97865.66;4933548;29;20019;-63
2022/05/13 14:41:25;;;;;;;;;;;;;;;13.67;54.93;97927.31;4916283;29;20261;-61
2022/05/13 14:43:50;;;;;;;;;;;;;;;12.92;59.19;97898.97;4901151;29;19939;-61
2022/05/13 14:46:16;;;;;;;;;;;;;;;12.67;61.78;97924.03;4935076;29;20292;-63
2022/05/13 14:48:41;;;;;;;;;;;;;;;12.52;63.63;97926.91;4933853;29;20411;-63
2022/05/13 14:51:16;;;;;;;;;;;;;;;12.26;60.37;97914.72;4934582;29;19942;-61
2022/05/13 14:53:48;;;;;;;;;;;;;;;12.16;59.01;97884.81;4933955;29;20067;-62
2022/05/13 14:56:16;;;;;;;;;;;;;;;12.07;57.39;97881.22;4932678;29;19927;-61
2022/05/13 14:58:47;;;;;;;;;;;;;;;12.14;57.41;97874.47;4934392;29;19931;-61
2022/05/13 15:01:36;;;;;;;;;;;;;;;12.29;56.73;97878.81;4932612;29;19927;-62
2022/05/13 15:04:12;;;;;;;;;;;;;;;12.56;56.55;97880.06;4931323;29;19930;-64
2022/05/13 15:06:44;;;;;;;;;;;;;;;12.76;56.36;97865.69;4934062;29;19927;-62
2022/05/13 15:09:22;;;;;;;;;;;;;;;12.96;57.09;97860.84;4916461;29;19954;-62
2022/05/13 15:11:49;;;;;;;;;;;;;;;13.08;56.39;97846.31;4933051;29;19926;-63
2022/05/13 15:14:14;;;;;;;;;;;;;;;13.19;57.25;97853.06;4932622;29;19931;-62
2022/05/13 15:16:40;;;;;;;;;;;;;;;13.14;58.10;97845.94;4931290;29;19927;-63
2022/05/13 15:19:06;;;;;;;;;;;;;;;13.09;56.71;97843.38;4915005;29;19937;-62
2022/05/13 15:21:32;;;;;;;;;;;;;;;13.00;57.40;97842.47;4931644;29;20033;-62
2022/05/13 15:23:57;;;;;;;;;;;;;;;12.96;57.62;97850.22;4932092;29;20032;-61
2022/05/13 15:26:27;;;;;;;;;;;;;;;12.90;58.46;97846.06;4931683;29;19926;-61
2022/05/13 15:28:53;;;;;;;;;;;;;;;12.91;58.98;97844.19;4933582;29;19930;-62
2022/05/13 15:31:18;;;;;;;;;;;;;;;12.88;59.48;97850.91;4933433;29;19942;-64
2022/05/13 15:33:44;;;;;;;;;;;;;;;12.83;60.03;97850.97;4915739;29;19931;-63
2022/05/13 15:36:23;;;;;;;;;;;;;;;12.76;60.33;97850.53;4932763;29;19947;-62
2022/05/13 15:38:49;;;;;;;;;;;;;;;12.70;60.10;97857.00;4954140;28;20495;-62
2022/05/13 15:41:15;;;;;;;;;;;;;;;12.73;60.61;97867.06;4943740;29;19931;-61
2022/05/13 15:43:42;;;;;;;;;;;;;;;12.78;60.62;97858.22;4934173;29;20037;-64
2022/05/13 15:46:07;;;;;;;;;;;;;;;12.79;60.70;97865.91;4935718;29;19933;-60
2022/05/13 15:48:33;;;;;;;;;;;;;;;12.83;60.89;97866.13;4903689;29;19938;-64
2022/05/13 15:53:43;;;;;;;;;;;;;;;12.83;61.17;97858.94;4953588;29;19980;-61
2022/05/13 15:56:11;;;;;;;;;;;;;;;12.83;61.09;97869.56;4938299;29;19962;-62
2022/05/13 15:58:41;;;;;;;;;;;;;;;12.73;61.18;97872.38;4935186;29;19974;-63
2022/05/13 16:01:07;;;;;;;;;;;;;;;12.68;61.62;97867.94;4940847;29;20419;-63
2022/05/13 16:03:33;;;;;;;;;;;;;;;12.67;61.74;97874.31;4955074;28;19989;-63
2022/05/13 16:05:58;;;;;;;;;;;;;;;12.64;61.97;97882.06;4953156;29;19981;-63
2022/05/13 16:08:24;;;;;;;;;;;;;;;12.70;62.35;97892.34;4953150;29;19931;-63
2022/05/13 16:10:51;;;;;;;;;;;;;;;12.71;62.73;97925.84;4952498;29;20016;-62
2022/05/13 16:13:28;;;;;;;;;;;;;;;12.56;63.21;97923.41;4952793;29;19933;-64
2022/05/13 16:15:58;;;;;;;;;;;;;;;12.43;63.37;97940.81;4955693;29;20308;-65
2022/05/13 16:18:24;;;;;;;;;;;;;;;12.25;61.05;97946.88;4954720;29;19930;-62
2022/05/13 16:20:50;;;;;;;;;;;;;;;12.08;60.66;97949.97;4955273;29;19926;-62
2022/05/13 16:23:16;;;;;;;;;;;;;;;11.87;61.94;97954.72;4953662;29;20025;-63
2022/05/13 16:25:42;;;;;;;;;;;;;;;11.73;62.61;97967.00;4937741;29;19927;-65
2022/05/13 16:28:08;;;;;;;;;;;;;;;11.52;64.02;97977.00;4954136;29;19949;-65
2022/05/13 16:30:34;;;;;;;;;;;;;;;11.33;65.34;97984.88;4956040;28;19926;-65
2022/05/13 16:32:59;;;;;;;;;;;;;;;11.25;66.31;97964.22;4955275;28;19929;-64
2022/05/13 16:35:25;;;;;;;;;;;;;;;11.27;66.78;97922.31;4954510;29;19935;-63
2022/05/13 16:37:51;;;;;;;;;;;;;;;11.48;66.47;97923.72;4939810;29;19927;-63
2022/05/13 16:40:21;;;;;;;;;;;;;;;11.69;65.98;97926.19;4936136;29;19938;-60
2022/05/13 16:42:47;;;;;;;;;;;;;;;11.72;64.97;97926.41;4934472;29;20303;-63
2022/05/13 16:45:13;;;;;;;;;;;;;;;11.66;65.76;97919.56;4935556;29;20025;-62
2022/05/13 16:47:39;;;;;;;;;;;;;;;11.54;66.39;97911.19;4918198;29;19966;-61